Time;durP1;ratioP1;P1;durP2;ratioP2;P2;SDS_P1;SDS_P2;PMS_P1;PMS_P2;Temp;Humidity;BMP_temperature;BMP_pressure;BME280_temperature;BME280_humidity;BME280_pressure;Samples;Min_cycle;Max_cycle;Signal;HPM_P1;HPM_P2
2024/04/08 00:00:55;;;;;;;20.90;6.60;;;;;;;9.53;68.92;101889.59;107560;1251;107867;-64
2024/04/08 00:03:43;;;;;;;20.40;5.40;;;;;;;9.50;69.06;101886.95;107601;1251;100545;-64
2024/04/08 00:06:13;;;;;;;14.20;5.40;;;;;;;9.48;68.97;101889.72;107602;1251;100414;-64
2024/04/08 00:08:42;;;;;;;9.70;5.00;;;;;;;9.48;68.95;101890.12;107601;1251;114563;-64
2024/04/08 00:11:10;;;;;;;11.30;4.30;;;;;;;9.46;68.97;101888.83;107603;1251;107654;-63
2024/04/08 00:13:38;;;;;;;14.80;5.10;;;;;;;9.43;69.12;101890.93;107544;1254;107658;-64
2024/04/08 00:16:06;;;;;;;14.60;5.10;;;;;;;9.39;69.10;101893.89;107523;1250;100525;-64
2024/04/08 00:18:34;;;;;;;10.60;5.10;;;;;;;9.34;69.28;101892.80;107542;1251;101245;-64
2024/04/08 00:21:04;;;;;;;9.70;4.50;;;;;;;9.30;69.08;101892.72;107562;1251;114798;-64
2024/04/08 00:23:32;;;;;;;12.60;4.90;;;;;;;9.27;69.33;101892.56;107568;1250;107884;-63
2024/04/08 00:26:04;;;;;;;15.10;5.40;;;;;;;9.23;69.36;101892.29;107531;1250;107158;-63
2024/04/08 00:28:39;;;;;;;16.00;5.20;;;;;;;9.19;69.68;101893.77;107537;1251;100525;-62
2024/04/08 00:31:10;;;;;;;10.30;5.10;;;;;;;9.13;69.79;101893.98;107558;1251;101071;-63
2024/04/08 00:33:38;;;;;;;13.80;5.00;;;;;;;9.11;69.74;101894.33;107592;1251;113311;-63
2024/04/08 00:36:07;;;;;;;9.10;4.60;;;;;;;9.09;69.71;101891.73;107614;1251;108321;-63
2024/04/08 00:38:35;;;;;;;12.30;5.00;;;;;;;9.06;69.69;101889.42;107571;1250;108204;-63
2024/04/08 00:41:04;;;;;;;12.60;5.00;;;;;;;9.05;69.86;101893.20;107578;1251;100610;-64
2024/04/08 00:43:32;;;;;;;13.90;5.40;;;;;;;9.05;69.90;101895.41;107615;1250;100405;-62
2024/04/08 00:46:01;;;;;;;9.50;5.10;;;;;;;9.02;69.91;101898.57;107580;1254;115467;-62
2024/04/08 00:48:30;;;;;;;9.20;5.10;;;;;;;9.01;69.96;101904.02;107508;1250;107652;-63
2024/04/08 00:50:58;;;;;;;12.90;4.70;;;;;;;8.99;70.01;101900.06;107462;1250;107971;-63
2024/04/08 00:53:26;;;;;;;14.50;5.20;;;;;;;8.97;70.02;101899.14;107582;1251;100629;-64
2024/04/08 00:55:56;;;;;;;18.70;4.40;;;;;;;8.94;70.01;101901.96;107503;1251;100437;-64
2024/04/08 00:58:25;;;;;;;13.40;5.20;;;;;;;8.91;70.04;101900.19;107520;1251;114142;-64
2024/04/08 01:00:53;;;;;;;18.60;5.20;;;;;;;8.90;70.22;101899.88;107502;1251;107563;-63
2024/04/08 01:03:21;;;;;;;15.10;5.00;;;;;;;8.89;70.26;101899.06;107492;1251;108500;-63
2024/04/08 01:05:51;;;;;;;13.00;4.90;;;;;;;8.90;70.27;101900.27;107524;1251;100523;-64
2024/04/08 01:08:19;;;;;;;15.40;4.90;;;;;;;8.88;70.24;101897.49;107495;1254;100543;-65
2024/04/08 01:10:48;;;;;;;10.30;4.80;;;;;;;8.87;70.19;101889.39;107505;1251;113982;-63
2024/04/08 01:13:16;;;;;;;19.40;5.00;;;;;;;8.85;70.19;101891.31;107511;1251;107844;-64
2024/04/08 01:15:45;;;;;;;12.80;5.30;;;;;;;8.82;70.17;101887.73;107457;1251;107687;-63
2024/04/08 01:18:12;;;;;;;17.10;5.10;;;;;;;8.78;70.14;101882.43;107490;1251;100516;-62
2024/04/08 01:20:41;;;;;;;19.20;5.40;;;;;;;8.75;70.37;101885.58;107528;1250;101034;-63
2024/04/08 01:23:13;;;;;;;24.60;5.30;;;;;;;8.74;70.24;101888.55;107496;1251;114893;-64
2024/04/08 01:25:41;;;;;;;17.80;5.10;;;;;;;8.69;70.28;101890.70;107517;1251;108611;-64
2024/04/08 01:28:10;;;;;;;14.50;4.70;;;;;;;8.63;70.23;101888.88;107484;1251;107122;-62
2024/04/08 01:30:38;;;;;;;14.80;4.30;;;;;;;8.60;70.23;101888.55;107480;1251;100577;-63
2024/04/08 01:33:06;;;;;;;12.00;4.40;;;;;;;8.56;70.27;101888.41;107478;1251;100424;-63
2024/04/08 01:35:34;;;;;;;12.40;5.00;;;;;;;8.53;70.36;101891.09;107544;1251;114444;-62
2024/04/08 01:38:03;;;;;;;21.60;6.00;;;;;;;8.50;70.31;101888.64;107482;1251;107610;-64
2024/04/08 01:40:31;;;;;;;15.70;6.00;;;;;;;8.46;70.18;101888.47;107514;1251;108939;-64
2024/04/08 01:42:59;;;;;;;13.30;5.50;;;;;;;8.41;70.35;101885.18;107514;1251;100522;-64
2024/04/08 01:45:27;;;;;;;14.90;4.80;;;;;;;8.40;70.52;101884.02;107517;1251;100593;-64
2024/04/08 01:47:55;;;;;;;16.10;5.10;;;;;;;8.40;70.68;101882.79;107558;1251;114439;-64
2024/04/08 01:50:23;;;;;;;11.80;5.00;;;;;;;8.40;70.67;101884.56;107526;1254;107777;-63
2024/04/08 01:52:51;;;;;;;17.00;4.70;;;;;;;8.40;70.79;101884.73;107530;1250;108203;-63
2024/04/08 01:55:19;;;;;;;14.50;4.30;;;;;;;8.37;70.64;101882.23;107535;1251;100536;-63
2024/04/08 01:57:51;;;;;;;7.50;4.40;;;;;;;8.35;70.77;101885.59;107529;1254;100619;-64
2024/04/08 02:00:20;;;;;;;13.40;4.60;;;;;;;8.30;70.62;101881.07;107525;1250;114221;-64
2024/04/08 02:02:48;;;;;;;13.60;5.50;;;;;;;8.27;70.66;101881.43;107555;1254;108687;-62
2024/04/08 02:05:17;;;;;;;15.40;4.70;;;;;;;8.23;70.58;101880.57;107611;1254;107724;-63
2024/04/08 02:07:45;;;;;;;16.60;4.80;;;;;;;8.22;70.78;101882.27;107516;1251;100629;-63
2024/04/08 02:10:13;;;;;;;13.30;4.50;;;;;;;8.20;70.96;101880.45;107498;1251;100608;-63
2024/04/08 02:12:41;;;;;;;9.10;4.80;;;;;;;8.17;70.78;101879.16;107476;1254;113754;-63
2024/04/08 02:15:09;;;;;;;11.20;4.50;;;;;;;8.15;70.89;101879.80;107546;1250;108402;-63
2024/04/08 02:17:37;;;;;;;8.40;4.60;;;;;;;8.13;71.00;101879.89;107532;1251;108044;-62
2024/04/08 02:20:08;;;;;;;19.90;4.40;;;;;;;8.12;70.93;101879.79;107589;1251;100636;-63
2024/04/08 02:22:36;;;;;;;11.70;4.60;;;;;;;8.08;70.92;101883.45;107501;1251;100544;-63
2024/04/08 02:25:07;;;;;;;8.40;4.80;;;;;;;8.00;71.02;101879.45;107545;1251;114082;-63
2024/04/08 02:27:35;;;;;;;12.70;5.10;;;;;;;7.95;70.92;101879.77;107530;1254;109853;-64
2024/04/08 02:30:05;;;;;;;16.60;4.70;;;;;;;7.91;71.12;101879.48;107499;1251;107310;-63
2024/04/08 02:32:33;;;;;;;14.40;4.30;;;;;;;7.90;71.15;101878.43;107528;1254;100602;-64
2024/04/08 02:35:02;;;;;;;11.50;4.40;;;;;;;7.90;71.32;101879.33;107528;1251;100595;-64
2024/04/08 02:37:30;;;;;;;14.60;5.50;;;;;;;7.90;71.31;101880.60;107508;1250;113121;-64
2024/04/08 02:39:59;;;;;;;11.50;5.20;;;;;;;7.90;71.44;101882.52;107540;1251;108677;-63
2024/04/08 02:42:27;;;;;;;19.50;4.60;;;;;;;7.90;71.39;101885.23;107480;1251;107073;-63
2024/04/08 02:44:55;;;;;;;9.60;4.90;;;;;;;7.89;71.40;101890.13;107519;1251;100635;-64
2024/04/08 02:47:23;;;;;;;17.00;4.70;;;;;;;7.87;71.26;101891.11;107582;1251;100542;-63
2024/04/08 02:49:51;;;;;;;11.40;4.50;;;;;;;7.85;71.42;101887.48;107508;1251;113983;-63
2024/04/08 02:52:20;;;;;;;15.50;4.50;;;;;;;7.82;71.38;101886.24;107525;1251;108367;-63
2024/04/08 02:54:52;;;;;;;14.00;4.10;;;;;;;7.79;71.22;101886.97;107489;1254;108276;-62
2024/04/08 02:57:20;;;;;;;10.30;4.20;;;;;;;7.75;71.39;101889.50;107510;1251;100516;-63
2024/04/08 02:59:48;;;;;;;13.20;4.60;;;;;;;7.73;71.49;101886.95;107537;1254;100533;-63
2024/04/08 03:02:16;;;;;;;17.30;4.60;;;;;;;7.73;71.65;101887.48;107512;1251;116463;-65
2024/04/08 03:04:44;;;;;;;10.30;4.30;;;;;;;7.73;71.78;101888.19;107523;1250;108308;-62
2024/04/08 03:07:12;;;;;;;19.60;5.00;;;;;;;7.72;71.74;101889.14;107551;1250;109262;-62
2024/04/08 03:09:40;;;;;;;15.70;6.60;;;;;;;7.71;71.79;101886.88;107559;1251;100408;-62
2024/04/08 03:12:09;;;;;;;27.50;15.30;;;;;;;7.70;71.74;101891.41;107589;1251;100526;-63
2024/04/08 03:14:37;;;;;;;25.10;13.50;;;;;;;7.69;71.90;101890.75;107593;1251;114037;-63
2024/04/08 03:17:05;;;;;;;16.30;8.40;;;;;;;7.67;71.93;101888.73;107569;1251;108364;-64
2024/04/08 03:19:34;;;;;;;16.90;9.00;;;;;;;7.66;71.81;101883.97;107579;1251;107934;-62
2024/04/08 03:22:02;;;;;;;17.70;7.80;;;;;;;7.64;71.73;101889.61;107564;1251;100513;-63
2024/04/08 03:24:31;;;;;;;16.20;7.00;;;;;;;7.62;71.73;101889.54;107582;1251;101054;-64
2024/04/08 03:26:58;;;;;;;18.10;6.20;;;;;;;7.61;71.92;101890.52;107585;1250;113823;-64
2024/04/08 03:29:26;;;;;;;17.70;6.40;;;;;;;7.61;71.99;101893.16;107569;1251;107361;-63
2024/04/08 03:31:55;;;;;;;20.70;6.20;;;;;;;7.61;72.09;101892.27;107592;1250;108152;-63
2024/04/08 03:34:23;;;;;;;14.10;5.70;;;;;;;7.60;71.94;101897.16;107533;1251;100719;-63
2024/04/08 03:36:51;;;;;;;20.10;5.60;;;;;;;7.59;72.01;101894.73;107605;1254;100424;-62
2024/04/08 03:39:20;;;;;;;31.40;6.40;;;;;;;7.56;71.95;101897.02;107638;1251;114360;-63
2024/04/08 03:41:50;;;;;;;26.80;6.50;;;;;;;7.52;71.99;101894.04;107576;1254;108320;-63
2024/04/08 03:44:18;;;;;;;26.30;5.70;;;;;;;7.51;71.94;101897.51;107587;1251;107302;-63
2024/04/08 03:46:49;;;;;;;19.10;6.30;;;;;;;7.51;72.09;101901.43;107552;1251;100539;-63
2024/04/08 03:49:17;;;;;;;24.40;5.40;;;;;;;7.49;72.07;101904.56;107609;1251;100425;-64
2024/04/08 03:51:46;;;;;;;14.70;5.20;;;;;;;7.50;72.08;101906.30;107631;1251;113932;-65
2024/04/08 03:54:15;;;;;;;16.90;4.70;;;;;;;7.49;71.95;101911.20;107622;1251;107709;-65
2024/04/08 03:56:43;;;;;;;22.90;4.50;;;;;;;7.48;72.14;101911.95;107615;1251;108386;-64
2024/04/08 03:59:11;;;;;;;22.50;4.20;;;;;;;7.48;71.99;101909.43;107625;1251;100580;-64
2024/04/08 04:01:39;;;;;;;21.60;4.50;;;;;;;7.49;72.00;101910.13;107636;1250;101176;-63
2024/04/08 04:04:07;;;;;;;10.70;3.60;;;;;;;7.45;72.17;101913.53;107563;1251;115086;-64
2024/04/08 04:06:35;;;;;;;16.80;4.50;;;;;;;7.46;72.27;101913.50;107588;1250;108338;-64
2024/04/08 04:09:03;;;;;;;19.30;4.10;;;;;;;7.46;72.44;101915.80;107607;1251;107235;-63
2024/04/08 04:11:32;;;;;;;13.80;4.10;;;;;;;7.45;72.26;101912.82;107575;1251;100632;-63
2024/04/08 04:14:00;;;;;;;33.80;4.70;;;;;;;7.44;72.42;101920.02;107601;1251;101188;-64
2024/04/08 04:16:28;;;;;;;12.90;4.40;;;;;;;7.46;72.66;101916.33;107587;1251;114588;-64
2024/04/08 04:18:56;;;;;;;15.60;3.90;;;;;;;7.50;72.69;101917.36;107581;1251;107894;-63
2024/04/08 04:21:27;;;;;;;8.40;4.10;;;;;;;7.54;72.90;101912.50;107597;1251;107562;-65
2024/04/08 04:23:55;;;;;;;10.80;5.10;;;;;;;7.59;72.87;101916.70;107535;1251;100619;-64
2024/04/08 04:26:23;;;;;;;21.40;4.50;;;;;;;7.63;73.07;101922.31;107500;1250;100446;-63
2024/04/08 04:28:51;;;;;;;149.20;8.90;;;;;;;7.68;73.07;101922.77;107516;1251;114578;-63
2024/04/08 04:31:19;;;;;;;90.70;6.50;;;;;;;7.73;73.24;101925.52;107487;1251;107365;-64
2024/04/08 04:33:47;;;;;;;17.60;4.70;;;;;;;7.77;73.37;101921.15;107527;1251;107860;-65
2024/04/08 04:36:15;;;;;;;12.60;3.90;;;;;;;7.81;73.36;101922.90;107577;1256;100558;-64
2024/04/08 04:38:43;;;;;;;21.90;4.80;;;;;;;7.87;73.47;101922.77;107515;1250;101018;-64
2024/04/08 04:41:16;;;;;;;22.70;4.80;;;;;;;7.92;73.53;101924.94;107503;1251;114051;-64
2024/04/08 04:43:44;;;;;;;9.40;5.00;;;;;;;7.97;73.79;101929.80;107562;1251;107506;-66
2024/04/08 04:46:12;;;;;;;14.10;4.60;;;;;;;8.04;73.72;101926.58;107486;1251;107603;-64
2024/04/08 04:48:41;;;;;;;15.10;4.70;;;;;;;8.09;73.75;101923.39;107485;1251;100522;-64
2024/04/08 04:51:10;;;;;;;14.70;4.50;;;;;;;8.15;73.82;101922.67;107461;1250;100415;-63
2024/04/08 04:53:38;;;;;;;13.00;6.00;;;;;;;8.21;74.07;101921.27;107382;1251;114015;-63
2024/04/08 04:56:07;;;;;;;11.20;4.30;;;;;;;8.27;74.14;101920.73;107479;1251;108162;-62
2024/04/08 04:58:35;;;;;;;10.40;4.60;;;;;;;8.33;74.21;101915.16;107418;1251;108431;-64
2024/04/08 05:01:03;;;;;;;19.80;6.10;;;;;;;8.42;74.15;101917.68;107451;1251;100532;-63
2024/04/08 05:03:32;;;;;;;34.90;5.10;;;;;;;8.49;74.57;101919.77;107433;1254;100612;-63
2024/04/08 05:06:00;;;;;;;37.20;6.70;;;;;;;8.58;74.59;101923.52;107462;1254;113754;-63
2024/04/08 05:08:28;;;;;;;17.30;5.80;;;;;;;8.66;74.51;101924.15;107461;1251;107768;-64
2024/04/08 05:10:56;;;;;;;31.70;7.90;;;;;;;8.73;74.48;101918.18;107420;1250;108417;-63
2024/04/08 05:13:24;;;;;;;28.00;6.70;;;;;;;8.79;74.39;101922.62;107393;1251;100546;-62
2024/04/08 05:16:00;;;;;;;36.10;6.50;;;;;;;8.87;74.89;101920.30;107468;1251;100418;-63
2024/04/08 05:18:30;;;;;;;26.90;7.30;;;;;;;8.98;74.84;101921.96;107488;1254;114130;-62
2024/04/08 05:20:59;;;;;;;28.40;6.10;;;;;;;9.04;74.77;101916.88;107546;1251;106982;-63
2024/04/08 05:23:28;;;;;;;20.70;5.70;;;;;;;9.11;74.58;101921.86;107460;1251;105943;-63
2024/04/08 05:25:56;;;;;;;18.40;5.50;;;;;;;9.16;74.54;101920.27;107417;1254;100677;-63
2024/04/08 05:28:24;;;;;;;14.30;5.00;;;;;;;9.22;74.50;101923.48;107481;1253;100618;-63
2024/04/08 05:30:52;;;;;;;15.40;5.30;;;;;;;9.27;74.50;101919.05;107602;1251;113905;-63
2024/04/08 05:33:20;;;;;;;25.80;5.00;;;;;;;9.33;74.71;101916.33;107569;1251;107996;-63
2024/04/08 05:35:48;;;;;;;22.30;5.20;;;;;;;9.40;74.76;101919.96;107631;1252;108726;-64
2024/04/08 05:38:18;;;;;;;15.00;4.60;;;;;;;9.48;74.64;101918.77;107527;1250;100718;-63
2024/04/08 05:40:46;;;;;;;21.50;5.30;;;;;;;9.55;74.80;101913.45;107639;1251;101064;-63
2024/04/08 05:43:14;;;;;;;18.30;4.50;;;;;;;9.63;74.82;101913.63;107591;1251;114559;-63
2024/04/08 05:45:43;;;;;;;24.50;5.20;;;;;;;9.76;75.04;101916.58;107557;1251;108987;-63
2024/04/08 05:48:11;;;;;;;18.00;4.60;;;;;;;9.84;75.01;101917.98;107537;1251;107555;-63
2024/04/08 05:50:39;;;;;;;15.80;5.60;;;;;;;9.94;75.08;101920.54;107633;1250;100534;-63
2024/04/08 05:53:08;;;;;;;12.00;4.90;;;;;;;10.03;74.92;101922.11;107630;1250;100585;-63
2024/04/08 05:55:36;;;;;;;17.20;4.70;;;;;;;10.10;74.75;101920.39;107611;1250;113011;-63
2024/04/08 05:58:04;;;;;;;9.00;4.00;;;;;;;10.20;75.00;101922.89;107612;1253;108468;-64
2024/04/08 06:00:36;;;;;;;14.60;4.10;;;;;;;10.30;74.97;101918.65;107600;1251;108308;-63
2024/04/08 06:03:06;;;;;;;14.20;4.80;;;;;;;10.37;74.74;101918.71;107563;1251;100517;-64
2024/04/08 06:05:35;;;;;;;17.60;4.10;;;;;;;10.45;74.61;101918.71;107600;1253;100662;-64
2024/04/08 06:08:03;;;;;;;15.50;4.50;;;;;;;10.53;74.76;101921.02;107603;1251;113443;-64
2024/04/08 06:10:34;;;;;;;10.40;4.40;;;;;;;10.61;74.80;101916.17;107595;1251;107458;-64
2024/04/08 06:13:02;;;;;;;15.00;5.00;;;;;;;10.71;74.85;101919.10;107551;1254;108296;-62
2024/04/08 06:15:31;;;;;;;13.00;5.60;;;;;;;10.81;74.82;101924.67;107504;1251;100605;-62
2024/04/08 06:18:00;;;;;;;11.00;5.10;;;;;;;10.90;74.84;101925.25;107521;1251;100635;-63
2024/04/08 06:20:28;;;;;;;16.10;5.10;;;;;;;10.98;74.59;101921.30;107489;1251;114907;-65
2024/04/08 06:22:57;;;;;;;20.20;6.50;;;;;;;11.06;74.65;101918.70;107484;1250;107461;-63
2024/04/08 06:25:26;;;;;;;18.60;6.20;;;;;;;11.16;75.02;101919.95;107469;1251;108642;-62
2024/04/08 06:27:55;;;;;;;23.10;6.30;;;;;;;11.25;74.66;101921.32;107420;1251;100564;-63
2024/04/08 06:30:24;;;;;;;19.40;6.80;;;;;;;11.33;74.93;101923.05;107501;1251;100433;-64
2024/04/08 06:32:52;;;;;;;13.90;6.10;;;;;;;11.42;74.68;101922.75;107486;1251;114188;-64
2024/04/08 06:35:21;;;;;;;18.20;8.50;;;;;;;11.52;74.84;101921.33;107476;1251;109210;-63
2024/04/08 06:37:49;;;;;;;13.30;5.50;;;;;;;11.63;74.91;101927.36;107485;1250;108167;-63
2024/04/08 06:40:17;;;;;;;15.40;6.30;;;;;;;11.72;74.94;101926.27;107468;1251;100872;-64
2024/04/08 06:42:45;;;;;;;27.10;6.40;;;;;;;11.84;75.08;101925.58;107553;1251;100642;-64
2024/04/08 06:45:14;;;;;;;24.30;5.30;;;;;;;11.96;74.89;101925.45;107516;1254;113847;-63
2024/04/08 06:47:43;;;;;;;20.20;5.10;;;;;;;12.06;74.56;101932.80;107540;1251;106931;-64
2024/04/08 06:50:11;;;;;;;15.40;9.30;;;;;;;12.14;74.41;101936.06;107429;1251;108744;-64
2024/04/08 06:52:39;;;;;;;18.30;5.10;;;;;;;12.24;74.40;101935.33;107468;1251;100415;-64
2024/04/08 06:55:07;;;;;;;16.60;6.40;;;;;;;12.35;74.36;101934.14;107498;1251;101180;-64
2024/04/08 06:57:36;;;;;;;18.90;4.50;;;;;;;12.47;74.37;101935.86;107450;1251;114131;-64
2024/04/08 07:00:06;;;;;;;16.90;4.70;;;;;;;12.60;74.52;101935.96;107419;1250;108311;-64
2024/04/08 07:02:34;;;;;;;20.10;4.80;;;;;;;12.77;74.61;101933.92;107497;1251;107062;-64
2024/04/08 07:05:04;;;;;;;20.70;4.60;;;;;;;12.96;74.51;101925.22;107450;1254;100622;-64
2024/04/08 07:07:33;;;;;;;7.60;3.70;;;;;;;13.12;74.20;101922.46;107580;1251;101140;-64
2024/04/08 07:10:01;;;;;;;17.00;4.00;;;;;;;13.28;74.00;101918.48;107482;1254;114039;-64
2024/04/08 07:12:29;;;;;;;14.60;4.00;;;;;;;13.45;73.68;101921.84;107483;1251;108713;-64
2024/04/08 07:14:57;;;;;;;14.40;4.40;;;;;;;13.60;73.57;101917.70;107449;1250;108692;-64
2024/04/08 07:17:25;;;;;;;8.90;4.00;;;;;;;13.78;73.49;101916.02;107484;1254;100565;-64
2024/04/08 07:19:54;;;;;;;12.40;5.20;;;;;;;13.95;73.16;101914.23;107482;1251;100430;-64
2024/04/08 07:22:22;;;;;;;14.30;4.80;;;;;;;14.09;72.83;101912.50;107515;1251;115258;-64
2024/04/08 07:24:50;;;;;;;11.70;4.60;;;;;;;14.24;72.64;101909.23;107480;1251;108310;-64
2024/04/08 07:27:18;;;;;;;14.70;4.90;;;;;;;14.39;72.28;101900.95;107489;1254;107583;-64
2024/04/08 07:29:46;;;;;;;14.30;4.70;;;;;;;14.52;72.11;101902.69;107449;1251;100530;-65
2024/04/08 07:32:14;;;;;;;15.20;4.50;;;;;;;14.66;71.76;101900.02;107493;1251;100510;-64
2024/04/08 07:34:43;;;;;;;18.60;5.00;;;;;;;14.82;71.67;101896.70;107490;1251;114306;-64
2024/04/08 07:37:11;;;;;;;10.60;4.40;;;;;;;14.98;71.33;101896.02;107448;1251;108500;-64
2024/04/08 07:39:39;;;;;;;22.10;5.10;;;;;;;15.14;70.66;101902.88;107514;1251;108218;-64
2024/04/08 07:42:08;;;;;;;16.20;6.30;;;;;;;15.31;70.24;101903.14;107532;1251;100554;-64
2024/04/08 07:44:36;;;;;;;15.90;4.80;;;;;;;15.51;69.85;101901.17;107488;1251;100507;-64
2024/04/08 07:47:04;;;;;;;13.40;4.00;;;;;;;15.72;69.20;101901.75;107517;1251;114325;-64
2024/04/08 07:49:32;;;;;;;22.20;3.70;;;;;;;15.91;68.71;101900.21;107456;1255;107703;-64
2024/04/08 07:52:02;;;;;;;8.30;3.90;;;;;;;16.10;67.67;101898.83;107404;1251;107142;-64
2024/04/08 07:54:31;;;;;;;10.00;3.60;;;;;;;16.27;65.34;101892.49;107493;1251;100411;-64
2024/04/08 07:56:59;;;;;;;9.70;3.50;;;;;;;16.44;65.28;101891.44;107511;1251;101026;-64
2024/04/08 07:59:27;;;;;;;16.00;4.70;;;;;;;16.62;65.42;101886.52;106767;1251;941681;-64
2024/04/08 08:01:56;;;;;;;14.60;3.80;;;;;;;16.78;64.59;101884.96;107501;1251;107761;-64
2024/04/08 08:04:24;;;;;;;19.90;7.20;;;;;;;16.94;63.88;101882.36;107477;1251;108493;-64
2024/04/08 08:06:52;;;;;;;10.50;3.80;;;;;;;17.11;62.84;101878.63;107504;1251;100539;-64
2024/04/08 08:09:20;;;;;;;9.20;3.60;;;;;;;17.28;61.31;101873.39;107541;1254;100654;-63
2024/04/08 08:11:49;;;;;;;12.80;3.20;;;;;;;17.43;61.05;101875.68;107525;1252;114332;-63
2024/04/08 08:14:17;;;;;;;6.50;2.70;;;;;;;17.56;60.89;101875.23;107512;1251;108294;-63
2024/04/08 08:16:46;;;;;;;16.20;3.40;;;;;;;17.72;60.56;101875.13;107547;1250;110252;-63
2024/04/08 08:19:14;;;;;;;17.40;4.30;;;;;;;17.85;60.51;101876.88;107538;1251;100520;-63
2024/04/08 08:21:42;;;;;;;11.00;3.10;;;;;;;17.99;59.78;101871.54;107516;1251;101108;-63
2024/04/08 08:24:11;;;;;;;8.40;2.50;;;;;;;18.12;57.54;101871.23;107550;1251;113607;-63
2024/04/08 08:26:39;;;;;;;8.10;2.20;;;;;;;18.26;55.16;101863.46;107505;1251;108642;-63
2024/04/08 08:29:07;;;;;;;12.40;2.20;;;;;;;18.42;53.90;101859.48;107502;1250;107822;-63
2024/04/08 08:31:35;;;;;;;3.60;1.40;;;;;;;18.62;51.63;101861.36;107618;1251;100621;-63
2024/04/08 08:34:03;;;;;;;9.10;1.90;;;;;;;18.82;48.71;101858.16;107483;1254;100413;-63
2024/04/08 08:36:31;;;;;;;3.10;1.30;;;;;;;19.02;48.99;101854.41;107463;1251;113978;-63
2024/04/08 08:39:00;;;;;;;9.90;1.30;;;;;;;19.26;46.13;101855.16;107565;1251;108290;-63
2024/04/08 08:41:30;;;;;;;5.50;1.40;;;;;;;19.45;45.89;101850.45;107466;1251;108084;-63
2024/04/08 08:44:01;;;;;;;3.10;1.10;;;;;;;19.64;45.79;101846.98;107462;1251;100538;-63
2024/04/08 08:46:29;;;;;;;3.90;1.00;;;;;;;19.81;43.76;101839.10;107534;1255;101048;-63
2024/04/08 08:49:01;;;;;;;8.20;1.40;;;;;;;19.95;42.45;101837.92;107551;1251;114942;-63
2024/04/08 08:51:30;;;;;;;7.20;1.60;;;;;;;20.14;41.56;101835.05;107509;1251;107660;-63
2024/04/08 08:53:58;;;;;;;6.00;0.90;;;;;;;20.38;40.94;101832.55;107526;1251;107654;-62
2024/04/08 08:56:30;;;;;;;7.40;2.30;;;;;;;20.60;40.10;101830.10;107498;1251;100599;-62
2024/04/08 08:59:02;;;;;;;5.20;2.00;;;;;;;20.81;38.78;101826.99;107516;1256;101072;-62
2024/04/08 09:01:31;;;;;;;18.40;2.00;;;;;;;20.98;38.63;101825.95;107574;1251;113507;-62
2024/04/08 09:04:03;;;;;;;2.50;1.10;;;;;;;21.17;38.54;101817.52;107541;1251;107768;-62
2024/04/08 09:06:37;;;;;;;6.40;1.20;;;;;;;21.40;39.09;101817.13;107457;1251;107398;-63
2024/04/08 09:09:05;;;;;;;4.60;1.30;;;;;;;21.67;39.38;101813.61;107560;1251;100631;-62
2024/04/08 09:11:33;;;;;;;8.10;1.50;;;;;;;21.96;38.44;101812.23;107508;1251;100529;-62
2024/04/08 09:14:07;;;;;;;5.50;2.20;;;;;;;22.22;37.07;101812.66;107439;1250;115447;-63
2024/04/08 09:16:36;;;;;;;3.60;1.30;;;;;;;22.51;37.63;101806.94;107495;1251;108304;-63
2024/04/08 09:19:04;;;;;;;2.30;1.00;;;;;;;22.83;35.66;101803.63;107510;1254;108629;-63
2024/04/08 09:21:32;;;;;;;4.70;2.10;;;;;;;23.08;35.63;101792.55;107542;1251;100582;-62
2024/04/08 09:24:05;;;;;;;6.30;1.50;;;;;;;23.39;34.21;101798.25;107545;1251;100638;-62
2024/04/08 09:26:34;;;;;;;7.70;1.40;;;;;;;23.67;33.67;101790.94;107543;1250;113938;-63
2024/04/08 09:29:03;;;;;;;4.40;1.50;;;;;;;24.09;33.78;101786.44;107482;1251;107515;-63
2024/04/08 09:31:31;;;;;;;3.90;1.60;;;;;;;24.71;33.49;101782.06;107486;1250;107048;-63
2024/04/08 09:33:59;;;;;;;6.50;1.60;;;;;;;25.43;32.00;101777.29;107451;1254;100525;-63
2024/04/08 09:36:28;;;;;;;5.50;1.70;;;;;;;26.13;31.87;101775.33;107534;1250;100551;-63
2024/04/08 09:39:00;;;;;;;18.80;2.10;;;;;;;26.83;30.91;101770.20;107548;1250;113834;-63
2024/04/08 09:41:30;;;;;;;15.60;2.20;;;;;;;27.43;30.14;101760.73;107519;1251;107808;-63
2024/04/08 09:43:58;;;;;;;5.10;1.40;;;;;;;28.01;28.79;101763.10;107519;1251;107773;-62
2024/04/08 09:46:27;;;;;;;2.30;0.80;;;;;;;28.44;26.66;101763.91;107441;1251;100602;-63
2024/04/08 09:48:57;;;;;;;6.20;1.10;;;;;;;28.87;27.60;101765.36;107474;1251;100539;-63
2024/04/08 09:51:30;;;;;;;1.60;0.90;;;;;;;29.45;26.09;101763.16;107519;1251;114553;-63
2024/04/08 09:53:58;;;;;;;5.80;1.20;;;;;;;29.89;26.28;101756.34;107567;1251;108571;-63
2024/04/08 09:56:30;;;;;;;6.60;1.00;;;;;;;30.35;24.57;101755.14;107532;1251;107422;-63
2024/04/08 09:59:19;;;;;;;2.20;1.20;;;;;;;30.70;25.35;101753.09;107581;1251;100504;-63
2024/04/08 10:01:49;;;;;;;3.00;1.30;;;;;;;31.33;24.16;101757.96;107553;1251;101067;-62
2024/04/08 10:04:23;;;;;;;3.80;1.20;;;;;;;31.60;24.38;101751.33;107560;1251;115213;-64
2024/04/08 10:06:52;;;;;;;5.80;0.90;;;;;;;32.01;25.11;101747.36;107524;1252;107684;-63
2024/04/08 10:09:20;;;;;;;8.30;1.10;;;;;;;32.60;24.07;101747.55;107499;1252;109234;-63
2024/04/08 10:11:53;;;;;;;4.10;1.30;;;;;;;32.94;23.46;101745.33;107568;1251;100655;-64
2024/04/08 10:14:30;;;;;;;8.00;1.00;;;;;;;33.31;22.11;101746.05;107563;1250;100407;-65
2024/04/08 10:17:01;;;;;;;2.20;0.70;;;;;;;33.37;20.55;101743.94;107594;1251;114000;-65
2024/04/08 10:19:29;;;;;;;1.40;0.70;;;;;;;33.43;20.35;101736.23;107497;1251;108301;-64
2024/04/08 10:22:01;;;;;;;4.50;1.50;;;;;;;33.66;20.46;101732.77;107521;1252;108639;-63
2024/04/08 10:24:37;;;;;;;6.30;1.00;;;;;;;33.82;20.52;101737.22;107573;1251;100587;-63
2024/04/08 10:27:11;;;;;;;5.00;0.90;;;;;;;34.01;20.02;101737.12;107524;1251;100421;-64
2024/04/08 10:29:41;;;;;;;5.80;0.80;;;;;;;34.20;19.67;101730.98;107476;1253;115800;-65
2024/04/08 10:32:11;;;;;;;4.70;1.30;;;;;;;34.41;20.00;101729.08;107528;1252;107198;-63
2024/04/08 10:34:41;;;;;;;7.30;0.90;;;;;;;34.73;19.59;101722.55;107470;1251;106651;-63
2024/04/08 10:37:10;;;;;;;4.00;1.10;;;;;;;34.95;20.03;101723.66;107490;1251;100561;-65
2024/04/08 10:39:38;;;;;;;2.40;0.90;;;;;;;35.34;20.23;101715.17;107514;1253;100666;-63
2024/04/08 10:42:15;;;;;;;3.00;0.90;;;;;;;35.71;19.79;101707.90;107427;1251;114507;-63
2024/04/08 10:44:43;;;;;;;3.10;1.30;;;;;;;35.89;19.03;101710.41;107510;1256;106610;-64
2024/04/08 10:47:11;;;;;;;1.50;0.80;;;;;;;36.05;18.66;101710.71;107475;1251;108503;-64
2024/04/08 10:49:40;;;;;;;4.30;1.20;;;;;;;36.14;18.51;101706.31;107452;1251;100418;-64
2024/04/08 10:52:10;;;;;;;1.40;1.00;;;;;;;36.32;19.41;101700.11;107529;1251;100452;-64
2024/04/08 10:54:39;;;;;;;1.90;0.80;;;;;;;36.68;19.03;101697.77;107457;1251;114932;-64
2024/04/08 10:57:07;;;;;;;4.50;0.80;;;;;;;36.95;18.84;101689.06;107558;1251;108902;-64
2024/04/08 10:59:36;;;;;;;1.10;0.70;;;;;;;37.25;18.73;101692.84;107479;1256;107858;-64
2024/04/08 11:02:15;;;;;;;2.70;0.90;;;;;;;37.42;16.67;101687.92;107509;1251;100433;-64
2024/04/08 11:04:44;;;;;;;5.50;1.10;;;;;;;37.33;17.34;101682.61;107498;1251;100634;-64
2024/04/08 11:07:12;;;;;;;1.60;0.70;;;;;;;37.38;16.74;101681.38;107568;1251;115762;-64
2024/04/08 11:09:41;;;;;;;3.10;0.70;;;;;;;37.12;16.99;101675.73;107453;1251;108344;-64
2024/04/08 11:12:14;;;;;;;4.10;0.90;;;;;;;37.29;17.00;101665.35;107568;1251;108814;-62
2024/04/08 11:14:42;;;;;;;2.30;1.10;;;;;;;37.49;17.46;101666.11;107466;1251;100545;-64